Time;durP1;ratioP1;P1;durP2;ratioP2;P2;SDS_P1;SDS_P2;PMS_P1;PMS_P2;Temp;Humidity;BMP_temperature;BMP_pressure;BME280_temperature;BME280_humidity;BME280_pressure;Samples;Min_cycle;Max_cycle;Signal;HPM_P1;HPM_P2
2022/12/11 00:01:14;;;;;;;23.33;14.27;;;0.40;99.90;;;;;;5014188;28;20517;-81
2022/12/11 00:03:40;;;;;;;26.48;16.23;;;0.30;99.90;;;;;;5014157;28;20580;-81
2022/12/11 00:06:08;;;;;;;19.90;12.88;;;0.50;99.90;;;;;;5014813;28;20057;-81
2022/12/11 00:08:35;;;;;;;25.75;14.98;;;0.60;99.90;;;;;;5014208;28;20026;-81
2022/12/11 00:11:01;;;;;;;18.08;12.60;;;0.50;99.90;;;;;;5014575;28;20048;-81
2022/12/11 00:13:26;;;;;;;20.52;12.90;;;0.40;99.90;;;;;;5014006;28;20045;-82
2022/12/11 00:15:52;;;;;;;24.55;14.85;;;0.50;99.90;;;;;;5014722;28;20029;-81
2022/12/11 00:18:18;;;;;;;21.33;13.65;;;0.30;99.90;;;;;;5026896;28;20041;-81
2022/12/11 00:20:43;;;;;;;24.67;14.35;;;0.40;99.90;;;;;;5028322;28;20013;-81
2022/12/11 00:23:10;;;;;;;24.10;14.55;;;0.40;99.90;;;;;;5025528;28;20046;-89
2022/12/11 00:25:46;;;;;;;20.40;13.15;;;0.50;99.90;;;;;;5016619;28;20037;-89
2022/12/11 00:28:15;;;;;;;18.80;12.10;;;0.50;99.90;;;;;;5014570;28;20096;-89
2022/12/11 00:30:42;;;;;;;24.17;14.35;;;0.50;99.90;;;;;;5023650;28;20034;-89
2022/12/11 00:33:08;;;;;;;18.05;11.10;;;0.30;99.90;;;;;;5026352;28;20161;-90
2022/12/11 00:35:41;;;;;;;26.67;14.88;;;0.30;99.90;;;;;;5033351;28;20068;-90
2022/12/11 00:38:08;;;;;;;20.42;13.45;;;0.20;99.90;;;;;;5019249;28;20057;-88
2022/12/11 00:40:36;;;;;;;26.65;15.10;;;0.20;99.90;;;;;;5014055;28;20029;-89
2022/12/11 00:43:02;;;;;;;20.63;13.27;;;0.20;99.90;;;;;;5012655;28;20072;-90
2022/12/11 00:45:28;;;;;;;24.88;14.32;;;0.10;99.90;;;;;;5012731;28;20030;-89
2022/12/11 00:47:54;;;;;;;24.88;15.50;;;0.10;99.90;;;;;;5013863;28;20022;-90
2022/12/11 00:50:19;;;;;;;24.55;15.38;;;0.10;99.90;;;;;;5013909;28;20033;-89
2022/12/11 00:52:45;;;;;;;20.27;13.15;;;0.20;99.90;;;;;;5013711;28;20045;-89
2022/12/11 00:55:10;;;;;;;24.13;14.48;;;0.20;99.90;;;;;;5013916;28;20382;-89
2022/12/11 00:57:36;;;;;;;36.60;19.10;;;0.30;99.90;;;;;;5012708;28;20036;-89
2022/12/11 01:00:05;;;;;;;16.65;10.90;;;0.20;99.90;;;;;;5013035;28;20022;-89
2022/12/11 01:02:32;;;;;;;23.45;12.55;;;0.10;99.90;;;;;;5013374;28;20033;-89
2022/12/11 01:04:58;;;;;;;19.67;12.60;;;0.00;99.90;;;;;;5012344;28;20033;-89
2022/12/11 01:07:23;;;;;;;20.23;13.30;;;0.10;99.90;;;;;;5020396;28;20419;-90
2022/12/11 01:12:33;;;;;;;24.45;14.18;;;0.20;99.90;;;;;;5013951;28;20128;-89
2022/12/11 01:14:59;;;;;;;28.08;16.77;;;0.30;99.90;;;;;;5014741;28;20030;-89
2022/12/11 01:17:24;;;;;;;24.38;14.65;;;0.30;99.90;;;;;;5017779;28;20482;-90
2022/12/11 01:19:53;;;;;;;26.88;14.88;;;0.20;99.90;;;;;;5033330;28;20048;-91
2022/12/11 01:22:19;;;;;;;22.52;14.18;;;0.10;99.90;;;;;;5022354;28;20038;-89
2022/12/11 01:24:44;;;;;;;22.70;14.40;;;0.20;99.90;;;;;;5014336;28;20383;-89
2022/12/11 01:27:10;;;;;;;25.83;15.32;;;0.20;99.90;;;;;;5013840;28;20050;-89
2022/12/11 01:29:36;;;;;;;25.25;15.30;;;0.20;99.90;;;;;;5026624;28;20124;-90
2022/12/11 01:32:01;;;;;;;23.45;13.85;;;0.10;99.90;;;;;;5015411;28;20069;-89
2022/12/11 01:34:31;;;;;;;25.30;14.57;;;0.10;99.90;;;;;;5020143;28;20049;-89
2022/12/11 01:36:56;;;;;;;23.40;14.55;;;0.00;99.90;;;;;;5024187;28;20481;-90
2022/12/11 01:39:22;;;;;;;21.50;13.20;;;0.00;99.90;;;;;;5029069;28;20033;-89
2022/12/11 01:41:48;;;;;;;34.80;18.85;;;0.00;99.90;;;;;;5013380;28;20573;-89
2022/12/11 01:44:13;;;;;;;23.52;14.60;;;-0.10;99.90;;;;;;5011768;28;20359;-89
2022/12/11 01:46:39;;;;;;;25.00;14.45;;;0.00;99.90;;;;;;5012825;28;20433;-89
2022/12/11 01:49:10;;;;;;;23.73;14.40;;;0.50;99.90;;;;;;5013175;28;20363;-88
2022/12/11 01:51:41;;;;;;;32.13;19.08;;;0.50;99.90;;;;;;5012687;28;20026;-89
2022/12/11 01:54:10;;;;;;;25.08;14.73;;;0.10;99.90;;;;;;5012948;28;20128;-89
2022/12/11 01:56:38;;;;;;;20.95;13.80;;;0.20;99.90;;;;;;5012831;28;20101;-89
2022/12/11 01:59:06;;;;;;;23.73;15.00;;;0.20;99.90;;;;;;5013004;28;20402;-89
2022/12/11 02:01:50;;;;;;;21.17;13.27;;;0.10;99.90;;;;;;5012986;28;20037;-89
2022/12/11 02:04:18;;;;;;;25.92;15.55;;;0.20;99.90;;;;;;5013031;28;20490;-90
2022/12/11 02:06:46;;;;;;;24.20;15.40;;;0.00;99.90;;;;;;5012513;28;20398;-89
2022/12/11 02:09:22;;;;;;;24.73;15.55;;;0.10;99.90;;;;;;5012455;28;20026;-89
2022/12/11 02:12:15;;;;;;;25.58;14.57;;;0.10;99.90;;;;;;5011694;28;20141;-89
2022/12/11 02:14:46;;;;;;;27.00;15.60;;;0.20;99.90;;;;;;5011393;28;20477;-89
2022/12/11 02:17:21;;;;;;;20.50;13.93;;;0.00;99.90;;;;;;5012565;28;20021;-89
2022/12/11 02:20:20;;;;;;;30.33;16.77;;;0.00;99.90;;;;;;5011368;28;20037;-89
2022/12/11 02:23:11;;;;;;;22.40;13.13;;;0.00;99.90;;;;;;5019598;28;20017;-89
2022/12/11 02:25:52;;;;;;;33.17;17.67;;;0.20;99.90;;;;;;5032117;28;20030;-89
2022/12/11 02:28:36;;;;;;;22.55;13.00;;;0.00;99.90;;;;;;5006207;28;20056;-89
2022/12/11 02:31:12;;;;;;;34.40;18.38;;;-0.20;99.90;;;;;;5032355;28;20022;-89
2022/12/11 02:33:44;;;;;;;23.63;14.82;;;-0.10;99.90;;;;;;5030931;28;20041;-89
2022/12/11 02:36:12;;;;;;;21.45;13.27;;;0.00;99.90;;;;;;5022317;28;20026;-89
2022/12/11 02:38:41;;;;;;;24.98;14.40;;;0.00;99.90;;;;;;5010646;28;20031;-89
2022/12/11 02:41:10;;;;;;;23.73;14.07;;;-0.10;99.90;;;;;;5030110;28;20053;-90
2022/12/11 02:43:38;;;;;;;23.73;14.90;;;0.00;99.90;;;;;;5030078;28;20393;-89
2022/12/11 02:46:06;;;;;;;23.70;14.48;;;0.00;99.90;;;;;;5026171;28;20541;-89
2022/12/11 02:48:33;;;;;;;22.30;13.68;;;0.40;99.90;;;;;;5024354;28;20486;-89
2022/12/11 02:51:00;;;;;;;23.67;14.57;;;0.10;99.90;;;;;;5031222;28;20029;-89
2022/12/11 02:53:30;;;;;;;28.27;16.73;;;0.30;99.90;;;;;;5035530;28;20124;-89
2022/12/11 02:56:07;;;;;;;30.80;17.45;;;0.40;99.90;;;;;;5035246;28;20040;-89
2022/12/11 02:58:35;;;;;;;30.92;16.80;;;0.30;99.90;;;;;;5001349;28;20053;-89
2022/12/11 03:01:00;;;;;;;26.92;15.98;;;-0.10;99.90;;;;;;5016232;28;20029;-89
2022/12/11 03:03:29;;;;;;;24.73;14.95;;;-0.10;99.90;;;;;;5015885;28;20382;-89
2022/12/11 03:05:55;;;;;;;25.00;15.05;;;0.10;99.90;;;;;;5017073;28;20041;-89
2022/12/11 03:08:21;;;;;;;25.42;15.55;;;0.00;99.90;;;;;;5015843;28;20076;-89
2022/12/11 03:10:46;;;;;;;24.70;15.57;;;-0.10;99.90;;;;;;5028211;28;20501;-89
2022/12/11 03:13:16;;;;;;;25.05;15.10;;;-0.10;99.90;;;;;;5021241;28;20041;-89
2022/12/11 03:16:02;;;;;;;28.52;16.38;;;0.00;99.90;;;;;;5015630;28;20481;-88
2022/12/11 03:18:31;;;;;;;35.53;19.75;;;0.00;99.90;;;;;;5002521;28;20033;-89
2022/12/11 03:21:08;;;;;;;26.75;16.40;;;0.00;99.90;;;;;;5015973;28;20069;-89
2022/12/11 03:23:48;;;;;;;25.90;15.88;;;0.00;99.90;;;;;;5015606;28;20101;-88
2022/12/11 03:26:16;;;;;;;26.63;15.07;;;0.00;99.90;;;;;;5014026;28;20025;-89
2022/12/11 03:29:01;;;;;;;23.20;13.40;;;0.30;99.90;;;;;;5015353;28;20054;-89
2022/12/11 03:31:52;;;;;;;30.45;17.13;;;-0.20;99.90;;;;;;5015290;28;20037;-89
2022/12/11 03:34:31;;;;;;;34.05;19.05;;;-0.20;99.90;;;;;;5030386;28;20489;-89
2022/12/11 03:36:59;;;;;;;23.98;13.60;;;-0.30;99.90;;;;;;5025496;28;20049;-90
2022/12/11 03:39:32;;;;;;;23.33;14.70;;;0.20;99.90;;;;;;5015215;28;20470;-88
2022/12/11 03:42:01;;;;;;;25.83;14.77;;;-0.30;99.90;;;;;;5014947;28;20030;-89
2022/12/11 03:44:30;;;;;;;29.35;17.55;;;-0.30;99.90;;;;;;5015927;28;20040;-89
2022/12/11 03:46:59;;;;;;;27.23;16.25;;;-0.10;99.90;;;;;;5023590;28;20079;-89
2022/12/11 03:49:28;;;;;;;33.63;19.15;;;-0.20;99.90;;;;;;5033893;28;20386;-89
2022/12/11 03:51:55;;;;;;;24.88;16.23;;;-0.30;99.90;;;;;;5034946;28;20565;-89
2022/12/11 03:54:23;;;;;;;35.83;20.23;;;-0.30;99.90;;;;;;5032747;28;20021;-89
2022/12/11 03:56:52;;;;;;;26.27;16.23;;;-0.40;99.90;;;;;;5034492;28;20107;-90
2022/12/11 03:59:18;;;;;;;25.30;15.88;;;-0.40;99.90;;;;;;5018940;28;20406;-89
2022/12/11 04:01:43;;;;;;;38.30;21.15;;;-0.40;99.90;;;;;;5014632;28;20016;-89
2022/12/11 04:04:09;;;;;;;31.58;18.33;;;-0.50;99.90;;;;;;5012320;28;20030;-89
2022/12/11 04:06:34;;;;;;;30.88;18.17;;;-0.50;99.90;;;;;;5014983;28;20037;-88
2022/12/11 04:09:00;;;;;;;26.08;15.32;;;-0.40;99.90;;;;;;5026766;28;20497;-89
2022/12/11 04:11:35;;;;;;;26.40;15.35;;;-0.40;99.90;;;;;;5027573;28;20026;-89
2022/12/11 04:16:53;;;;;;;27.85;16.83;;;-0.50;99.90;;;;;;5014631;28;20033;-88
2022/12/11 04:24:49;;;;;;;36.30;18.00;;;-0.50;99.90;;;;;;5014381;28;20033;-89
2022/12/11 04:27:47;;;;;;;28.95;17.27;;;-0.60;99.90;;;;;;5014134;28;20148;-89
2022/12/11 04:30:02;;;;;;;25.38;15.70;;;-0.50;99.90;;;;;;5014364;28;20030;-89
2022/12/11 04:32:28;;;;;;;24.95;15.25;;;-0.50;99.90;;;;;;5013964;28;20034;-89
2022/12/11 04:34:53;;;;;;;29.23;17.55;;;-0.60;99.90;;;;;;5032284;28;20083;-89
2022/12/11 04:37:19;;;;;;;28.20;16.65;;;-0.60;99.90;;;;;;5034319;28;20057;-89
2022/12/11 04:39:45;;;;;;;30.77;18.88;;;-0.50;99.90;;;;;;5033580;28;20033;-89
2022/12/11 04:42:10;;;;;;;26.23;16.23;;;-0.40;99.90;;;;;;5032597;28;20021;-89
2022/12/11 04:44:36;;;;;;;28.05;16.85;;;-0.30;99.90;;;;;;5024928;28;20446;-89
2022/12/11 04:47:02;;;;;;;32.35;19.30;;;-0.30;99.90;;;;;;5014119;28;20032;-89
2022/12/11 04:49:27;;;;;;;28.05;16.33;;;-0.20;99.90;;;;;;5015022;28;20026;-89
2022/12/11 04:51:53;;;;;;;26.90;15.82;;;-0.20;99.90;;;;;;5012460;28;20033;-89
2022/12/11 04:54:18;;;;;;;28.65;17.27;;;-0.20;99.90;;;;;;5012570;28;20076;-89
2022/12/11 04:56:44;;;;;;;26.42;16.20;;;-0.30;99.90;;;;;;5032222;28;20033;-89
2022/12/11 04:59:10;;;;;;;25.65;15.60;;;-0.30;99.90;;;;;;5020411;28;20105;-89
2022/12/11 05:01:35;;;;;;;28.10;16.75;;;-0.10;99.90;;;;;;5013593;28;20030;-89
2022/12/11 05:04:01;;;;;;;31.27;15.90;;;-0.50;99.90;;;;;;5024299;28;20385;-89
2022/12/11 05:06:26;;;;;;;29.92;17.35;;;-0.60;99.90;;;;;;5033581;28;20036;-89
2022/12/11 05:08:52;;;;;;;28.67;17.08;;;-0.40;99.90;;;;;;5020633;28;20076;-89
2022/12/11 05:11:18;;;;;;;32.45;17.80;;;-0.80;99.90;;;;;;5016994;28;20463;-89
2022/12/11 05:13:44;;;;;;;31.30;17.33;;;-0.70;99.90;;;;;;5015107;28;20453;-89
2022/12/11 05:16:13;;;;;;;27.63;16.08;;;-0.50;99.90;;;;;;5031792;28;20037;-88
2022/12/11 05:18:39;;;;;;;31.38;18.42;;;-0.50;99.90;;;;;;5031483;28;20026;-89
2022/12/11 05:21:10;;;;;;;30.10;18.25;;;-0.60;99.90;;;;;;5033147;28;20030;-89
2022/12/11 05:23:39;;;;;;;28.73;16.73;;;-0.70;99.90;;;;;;5032284;28;20104;-89
2022/12/11 05:26:08;;;;;;;31.88;17.25;;;-0.60;99.90;;;;;;5031090;28;20018;-89
2022/12/11 05:28:36;;;;;;;32.00;18.45;;;-0.60;99.90;;;;;;5032713;28;20045;-89
2022/12/11 05:31:07;;;;;;;32.17;17.92;;;-0.40;99.90;;;;;;5021742;28;20061;-89
2022/12/11 05:33:33;;;;;;;30.95;17.65;;;-0.50;99.90;;;;;;5021553;28;20029;-88
2022/12/11 05:35:59;;;;;;;30.45;17.52;;;-0.40;99.90;;;;;;5018607;28;20030;-89
2022/12/11 05:38:25;;;;;;;29.85;17.25;;;-0.60;99.90;;;;;;5013283;28;20025;-89
2022/12/11 05:41:02;;;;;;;31.95;18.02;;;-0.60;99.90;;;;;;5022639;28;20513;-89
2022/12/11 05:43:30;;;;;;;31.20;17.92;;;-0.40;99.90;;;;;;5013973;28;20414;-89
2022/12/11 05:46:03;;;;;;;28.77;17.33;;;-0.20;99.90;;;;;;5017339;28;20029;-89
2022/12/11 05:48:28;;;;;;;29.42;17.55;;;-0.20;99.90;;;;;;5018164;28;20084;-89
2022/12/11 05:50:59;;;;;;;29.73;17.77;;;-0.50;99.90;;;;;;5033109;28;20497;-88
2022/12/11 05:53:25;;;;;;;30.70;16.75;;;-0.40;99.90;;;;;;5024784;28;20123;-89
2022/12/11 05:55:51;;;;;;;29.90;17.73;;;-0.50;99.90;;;;;;5011340;28;20143;-89
2022/12/11 05:58:19;;;;;;;29.67;17.52;;;-0.50;99.90;;;;;;5011577;28;20121;-89
2022/12/11 06:00:44;;;;;;;29.35;17.02;;;-0.40;99.90;;;;;;5012959;28;20021;-89
2022/12/11 06:03:10;;;;;;;29.75;17.15;;;-0.40;99.90;;;;;;5012472;28;20025;-89
2022/12/11 06:05:40;;;;;;;28.90;16.95;;;-0.50;99.90;;;;;;5012610;28;20026;-89
2022/12/11 06:08:06;;;;;;;29.58;16.48;;;-0.70;99.90;;;;;;5012674;28;20044;-89
2022/12/11 06:10:32;;;;;;;26.60;16.17;;;-0.80;99.90;;;;;;5011365;28;20498;-89
2022/12/11 06:12:58;;;;;;;31.73;18.05;;;-0.80;99.90;;;;;;5012349;28;20550;-89
2022/12/11 06:15:24;;;;;;;27.85;16.73;;;-0.30;99.90;;;;;;5012686;28;20018;-89
2022/12/11 06:17:49;;;;;;;29.15;17.13;;;-0.80;99.90;;;;;;5011200;28;20033;-89
2022/12/11 06:20:15;;;;;;;28.85;17.00;;;-0.70;99.90;;;;;;5012549;28;20022;-89
2022/12/11 06:22:41;;;;;;;29.00;17.13;;;-0.60;99.90;;;;;;5012139;28;20037;-88
2022/12/11 06:25:07;;;;;;;31.17;18.33;;;-0.60;99.90;;;;;;5011037;28;20022;-89
2022/12/11 06:27:32;;;;;;;28.58;16.80;;;-0.60;99.90;;;;;;5031548;28;20045;-89
2022/12/11 06:29:58;;;;;;;28.48;16.42;;;-0.60;99.90;;;;;;5034898;28;20041;-89
2022/12/11 06:32:24;;;;;;;29.65;15.43;;;-0.50;99.90;;;;;;5032467;28;20049;-89
2022/12/11 06:34:49;;;;;;;29.20;16.83;;;-0.80;99.90;;;;;;5035576;28;20385;-90
2022/12/11 06:37:15;;;;;;;30.35;17.58;;;-0.80;99.90;;;;;;5033170;28;20477;-89
2022/12/11 06:39:40;;;;;;;28.02;16.38;;;-0.80;99.90;;;;;;5018124;28;20014;-89
2022/12/11 06:42:06;;;;;;;30.08;16.58;;;-0.80;99.90;;;;;;5017168;28;20026;-91
2022/12/11 06:44:32;;;;;;;25.02;14.50;;;-0.80;99.90;;;;;;5015657;28;20514;-89
2022/12/11 06:46:57;;;;;;;32.47;17.05;;;-0.80;99.90;;;;;;5022426;28;20026;-89
2022/12/11 06:49:23;;;;;;;30.02;17.38;;;-1.00;99.90;;;;;;5035282;28;20037;-89
2022/12/11 06:51:48;;;;;;;32.45;17.17;;;-1.00;99.90;;;;;;5017660;28;20038;-88
2022/12/11 06:54:14;;;;;;;30.55;18.50;;;-0.90;99.90;;;;;;5019310;28;20087;-89
2022/12/11 06:56:40;;;;;;;29.35;16.67;;;-0.90;99.90;;;;;;5016170;28;20056;-88
2022/12/11 06:59:06;;;;;;;31.70;17.80;;;-0.80;99.90;;;;;;5017010;28;20034;-89
2022/12/11 07:01:31;;;;;;;28.23;15.13;;;-0.80;99.90;;;;;;5016114;28;20022;-89
2022/12/11 07:03:58;;;;;;;29.10;17.55;;;-0.80;99.90;;;;;;5016584;28;20042;-89
2022/12/11 07:06:26;;;;;;;28.20;16.73;;;-0.90;99.90;;;;;;5017252;28;20410;-88
2022/12/11 07:08:52;;;;;;;32.25;18.17;;;-0.70;99.90;;;;;;5015984;28;20137;-89
2022/12/11 07:11:18;;;;;;;37.55;20.27;;;-1.00;99.90;;;;;;5030872;28;20026;-88
2022/12/11 07:13:44;;;;;;;31.40;18.08;;;-0.90;99.90;;;;;;5014223;28;20080;-88
2022/12/11 07:16:12;;;;;;;96.20;35.90;;;-0.90;99.90;;;;;;5016797;28;20475;-89
2022/12/11 07:18:40;;;;;;;30.88;18.55;;;-1.00;99.90;;;;;;5030841;28;20412;-91
2022/12/11 07:21:06;;;;;;;31.77;17.95;;;-0.90;99.90;;;;;;5021638;28;20026;-89
2022/12/11 07:23:33;;;;;;;46.90;22.45;;;-0.90;99.90;;;;;;5029271;28;20036;-89
2022/12/11 07:26:04;;;;;;;31.60;17.92;;;-0.60;99.90;;;;;;5015569;28;20461;-89
2022/12/11 07:28:30;;;;;;;36.20;20.65;;;-0.80;99.90;;;;;;5016170;28;20046;-89
2022/12/11 07:30:55;;;;;;;45.22;25.30;;;-0.80;99.90;;;;;;5015460;28;20383;-89
2022/12/11 07:33:21;;;;;;;38.25;21.27;;;-0.70;99.90;;;;;;5023046;28;20048;-89
2022/12/11 07:35:47;;;;;;;64.57;27.52;;;-1.00;99.90;;;;;;5018261;28;20433;-89
2022/12/11 07:38:12;;;;;;;89.95;42.58;;;-0.90;99.90;;;;;;5031834;28;20124;-89
2022/12/11 07:40:38;;;;;;;31.60;18.27;;;-0.90;99.90;;;;;;5032583;28;20047;-89
2022/12/11 07:43:04;;;;;;;45.72;26.90;;;-0.50;99.90;;;;;;5026433;28;20122;-89
2022/12/11 07:45:30;;;;;;;46.50;25.23;;;-0.90;99.90;;;;;;5019286;28;20111;-89
2022/12/11 07:47:55;;;;;;;32.80;17.98;;;-0.80;99.90;;;;;;5030172;28;20442;-89
2022/12/11 07:50:21;;;;;;;38.63;20.73;;;-0.90;99.90;;;;;;5033231;28;20433;-89
2022/12/11 07:52:47;;;;;;;32.10;18.85;;;-0.90;99.90;;;;;;5021738;28;20157;-89
2022/12/11 07:55:13;;;;;;;33.42;18.38;;;-0.80;99.90;;;;;;4995539;28;20097;-89
2022/12/11 07:57:39;;;;;;;29.55;16.05;;;-0.70;99.90;;;;;;4995415;28;20037;-88
2022/12/11 08:00:05;;;;;;;35.03;19.50;;;-0.80;99.90;;;;;;4995350;28;20028;-88
2022/12/11 08:02:31;;;;;;;53.85;28.70;;;-0.90;99.90;;;;;;4994366;28;20030;-85
2022/12/11 08:04:57;;;;;;;46.22;25.38;;;-0.30;99.90;;;;;;5001965;28;20092;-85
2022/12/11 08:07:22;;;;;;;36.17;19.52;;;-0.60;99.90;;;;;;5014969;28;20435;-85
2022/12/11 08:09:48;;;;;;;32.92;17.95;;;-0.50;99.90;;;;;;5023635;28;20387;-85
2022/12/11 08:12:13;;;;;;;32.60;17.90;;;-0.30;99.90;;;;;;5025019;28;20044;-85
2022/12/11 08:14:39;;;;;;;43.45;23.98;;;-0.30;99.90;;;;;;5014616;28;20087;-86
2022/12/11 08:17:05;;;;;;;32.67;18.58;;;-0.30;99.90;;;;;;5028756;28;20076;-87
2022/12/11 08:19:31;;;;;;;32.67;17.67;;;-0.10;99.90;;;;;;5032849;28;20067;-87
2022/12/11 08:21:56;;;;;;;39.67;21.90;;;-0.30;99.90;;;;;;5029374;28;20074;-86
2022/12/11 08:24:22;;;;;;;34.50;19.63;;;-0.30;99.90;;;;;;5018613;28;20486;-86
2022/12/11 08:26:47;;;;;;;61.20;32.55;;;-0.20;99.90;;;;;;5025864;28;20041;-86
2022/12/11 08:29:13;;;;;;;50.70;28.63;;;-0.20;99.90;;;;;;5034340;28;20126;-86
2022/12/11 08:31:40;;;;;;;73.85;39.67;;;-0.10;99.90;;;;;;5035935;28;20103;-85
2022/12/11 08:34:06;;;;;;;46.60;29.70;;;0.00;99.90;;;;;;5028738;28;20172;-88
2022/12/11 08:36:31;;;;;;;30.85;19.65;;;-0.30;99.90;;;;;;5028350;28;20105;-86
2022/12/11 08:38:57;;;;;;;32.50;18.27;;;-0.20;99.90;;;;;;5006736;28;20045;-87
2022/12/11 08:41:27;;;;;;;33.65;17.73;;;-0.20;99.90;;;;;;5017142;28;20036;-86
2022/12/11 08:43:54;;;;;;;31.17;18.80;;;-0.10;99.90;;;;;;5014540;28;20030;-86
2022/12/11 08:46:26;;;;;;;30.98;18.88;;;0.00;99.90;;;;;;5031664;28;20036;-87
2022/12/11 08:48:52;;;;;;;30.30;17.45;;;0.00;99.90;;;;;;5029847;28;20030;-88
2022/12/11 08:51:21;;;;;;;39.17;22.58;;;0.40;99.90;;;;;;5034111;28;20029;-86
2022/12/11 08:53:47;;;;;;;31.80;18.25;;;-0.20;99.90;;;;;;5033787;28;20457;-87
2022/12/11 08:56:15;;;;;;;40.08;23.55;;;0.20;99.90;;;;;;5029736;28;20042;-87
2022/12/11 08:58:42;;;;;;;34.92;21.33;;;-0.20;99.90;;;;;;5015368;28;20034;-87
2022/12/11 09:01:13;;;;;;;39.15;23.60;;;-0.10;99.90;;;;;;5018668;28;20030;-86
2022/12/11 09:03:39;;;;;;;56.53;32.08;;;0.10;99.90;;;;;;5022401;28;20041;-86
2022/12/11 09:06:07;;;;;;;40.22;25.42;;;-0.10;99.90;;;;;;5014646;28;20030;-87
2022/12/11 09:08:33;;;;;;;32.90;19.98;;;0.00;99.90;;;;;;5014407;28;20026;-87
2022/12/11 09:11:10;;;;;;;51.60;29.65;;;0.10;99.90;;;;;;5021185;28;20057;-92
2022/12/11 09:13:36;;;;;;;40.80;23.45;;;0.00;99.90;;;;;;5022768;28;20470;-95
2022/12/11 09:16:06;;;;;;;28.63;18.10;;;0.20;99.90;;;;;;5013939;28;20026;-87
2022/12/11 09:18:31;;;;;;;28.52;17.63;;;0.40;99.90;;;;;;5012457;28;20061;-86
2022/12/11 09:21:17;;;;;;;29.58;17.50;;;0.30;99.90;;;;;;5013810;28;20046;-86
2022/12/11 09:23:43;;;;;;;33.92;18.00;;;0.20;99.90;;;;;;5014671;28;20108;-87
2022/12/11 09:26:12;;;;;;;29.48;17.70;;;0.50;99.90;;;;;;5014629;28;20069;-86
2022/12/11 09:28:39;;;;;;;30.27;17.88;;;0.20;99.90;;;;;;5026749;28;20064;-88
2022/12/11 09:31:13;;;;;;;30.65;17.83;;;0.20;99.90;;;;;;5030855;28;20036;-92
2022/12/11 09:33:39;;;;;;;30.48;16.42;;;0.10;99.90;;;;;;5034906;28;20044;-91
2022/12/11 09:36:05;;;;;;;25.95;14.80;;;0.10;99.90;;;;;;5022709;28;20030;-90
2022/12/11 09:38:32;;;;;;;60.53;30.23;;;0.20;99.90;;;;;;5011853;28;20070;-91
2022/12/11 09:40:58;;;;;;;50.80;28.48;;;0.00;99.90;;;;;;5000435;28;20037;-89
2022/12/11 09:44:04;;;;;;;147.20;77.20;;;0.00;99.90;;;;;;5023654;28;20030;-89
2022/12/11 09:46:32;;;;;;;79.03;43.40;;;-0.10;99.90;;;;;;4992453;28;20022;-90
2022/12/11 09:48:59;;;;;;;64.85;37.67;;;-0.10;99.90;;;;;;5019564;28;20110;-90
2022/12/11 09:51:42;;;;;;;47.25;29.55;;;-0.10;99.90;;;;;;5031261;28;20108;-90
2022/12/11 09:54:12;;;;;;;31.63;19.13;;;-0.10;99.90;;;;;;5032276;28;20037;-90
2022/12/11 09:56:37;;;;;;;28.45;17.05;;;-0.10;99.90;;;;;;5031517;28;20482;-90
2022/12/11 09:59:17;;;;;;;34.47;21.88;;;0.10;99.90;;;;;;5031154;28;20031;-90
2022/12/11 10:02:12;;;;;;;24.70;14.88;;;0.10;99.90;;;;;;5032896;28;20053;-90
2022/12/11 10:04:48;;;;;;;49.60;29.52;;;0.20;99.90;;;;;;5029510;28;20124;-90
2022/12/11 10:07:36;;;;;;;35.17;22.00;;;0.10;99.90;;;;;;5011968;28;20033;-90
2022/12/11 10:10:12;;;;;;;32.55;19.67;;;0.10;99.90;;;;;;5013193;28;20117;-90
2022/12/11 10:12:52;;;;;;;31.40;19.75;;;0.10;99.90;;;;;;5012315;28;20037;-87
2022/12/11 10:15:49;;;;;;;27.65;17.30;;;0.10;99.90;;;;;;5001918;28;20053;-87
2022/12/11 10:18:18;;;;;;;26.65;16.55;;;0.20;99.90;;;;;;5013085;28;20022;-87
2022/12/11 10:20:44;;;;;;;26.95;16.42;;;0.20;99.90;;;;;;5012351;28;20040;-87
2022/12/11 10:23:20;;;;;;;27.10;16.10;;;0.20;99.90;;;;;;5010907;28;20030;-87
2022/12/11 10:25:53;;;;;;;24.85;15.30;;;0.00;99.90;;;;;;5012165;28;20032;-87
2022/12/11 10:28:20;;;;;;;29.25;15.65;;;0.00;99.90;;;;;;5012500;28;20046;-89
2022/12/11 10:31:06;;;;;;;26.40;15.90;;;0.20;99.90;;;;;;5016302;28;20470;-90
2022/12/11 10:33:40;;;;;;;29.15;16.95;;;0.20;99.90;;;;;;5020731;28;20087;-89
2022/12/11 10:36:08;;;;;;;26.58;15.75;;;0.20;99.90;;;;;;5003922;28;20026;-91
2022/12/11 10:38:39;;;;;;;27.58;17.05;;;0.00;99.90;;;;;;5012344;28;20448;-90
2022/12/11 10:41:11;;;;;;;26.02;15.85;;;0.10;99.90;;;;;;5010968;28;20034;-90
2022/12/11 10:43:42;;;;;;;30.13;18.63;;;0.20;99.90;;;;;;5008932;28;20029;-92
2022/12/11 10:46:16;;;;;;;29.23;17.58;;;0.30;99.90;;;;;;5015997;28;20088;-90
2022/12/11 10:49:20;;;;;;;32.17;18.40;;;0.30;99.90;;;;;;5012920;28;20105;-89
2022/12/11 10:51:45;;;;;;;29.60;16.88;;;0.70;99.90;;;;;;5029168;28;20018;-89
2022/12/11 10:54:28;;;;;;;29.35;17.95;;;0.30;99.90;;;;;;5025968;28;20116;-88
2022/12/11 10:56:55;;;;;;;31.25;18.38;;;0.20;99.90;;;;;;5011698;28;20054;-90
2022/12/11 10:59:31;;;;;;;29.27;17.77;;;0.10;99.90;;;;;;5010645;28;20037;-89
2022/12/11 11:01:57;;;;;;;28.67;17.35;;;0.20;99.90;;;;;;5011595;28;20062;-90
2022/12/11 11:04:37;;;;;;;31.13;17.42;;;0.10;99.90;;;;;;5011758;28;20064;-90
2022/12/11 11:07:15;;;;;;;27.60;17.05;;;0.10;99.90;;;;;;5013087;28;20030;-89
2022/12/11 11:09:41;;;;;;;58.25;34.60;;;0.20;99.90;;;;;;5011929;28;20434;-89
2022/12/11 11:12:25;;;;;;;101.35;53.95;;;0.30;99.90;;;;;;5019480;28;20438;-91
2022/12/11 11:15:01;;;;;;;30.60;18.73;;;0.40;99.90;;;;;;5018882;28;20029;-90
2022/12/11 11:17:27;;;;;;;37.65;21.63;;;0.40;99.90;;;;;;5016633;28;20093;-91
2022/12/11 11:19:54;;;;;;;31.55;18.85;;;0.10;99.90;;;;;;5026435;28;20033;-90
2022/12/11 11:22:20;;;;;;;31.35;19.17;;;0.20;99.90;;;;;;5015045;28;20053;-90
2022/12/11 11:24:54;;;;;;;36.00;20.25;;;0.20;99.90;;;;;;5018409;28;20049;-88
2022/12/11 11:27:28;;;;;;;35.97;21.42;;;0.50;99.90;;;;;;5014925;28;20046;-88
2022/12/11 11:29:58;;;;;;;34.15;19.33;;;0.40;99.90;;;;;;5016994;28;20558;-89
2022/12/11 11:32:37;;;;;;;31.88;20.30;;;0.40;99.90;;;;;;5007835;28;20050;-91
2022/12/11 11:35:10;;;;;;;107.25;51.78;;;0.20;99.90;;;;;;5000346;28;20076;-90
2022/12/11 11:37:37;;;;;;;85.53;41.17;;;0.10;99.90;;;;;;5015040;28;20022;-90
2022/12/11 11:40:26;;;;;;;162.70;76.28;;;0.70;99.90;;;;;;5012514;28;20034;-90
2022/12/11 11:43:30;;;;;;;85.28;42.35;;;0.20;99.90;;;;;;4995266;28;20030;-89
2022/12/11 11:46:03;;;;;;;45.97;25.85;;;0.30;99.90;;;;;;5024878;28;20033;-91
2022/12/11 11:49:15;;;;;;;124.00;57.95;;;0.30;99.90;;;;;;5033458;28;20061;-89
2022/12/11 11:51:55;;;;;;;57.72;30.48;;;0.10;99.90;;;;;;4957223;28;20039;-91
2022/12/11 11:54:32;;;;;;;42.38;25.05;;;0.20;99.90;;;;;;4973229;28;20035;-92
2022/12/11 11:57:02;;;;;;;33.70;19.85;;;0.40;99.90;;;;;;4968268;28;20035;-90
2022/12/11 11:59:38;;;;;;;33.92;19.85;;;0.50;99.90;;;;;;4938495;29;20122;-90
2022/12/11 12:02:14;;;;;;;55.47;28.58;;;0.50;99.90;;;;;;4953963;29;20491;-89
2022/12/11 12:04:41;;;;;;;37.58;20.83;;;0.80;99.90;;;;;;4937934;29;20094;-90
2022/12/11 12:07:44;;;;;;;66.25;33.15;;;0.60;99.90;;;;;;4954340;28;20043;-90
2022/12/11 12:10:35;;;;;;;77.80;39.10;;;0.50;99.90;;;;;;4953681;28;20438;-88
2022/12/11 12:13:25;;;;;;;61.30;32.83;;;0.50;99.90;;;;;;4954835;28;20053;-88
2022/12/11 12:15:55;;;;;;;36.60;21.70;;;0.50;99.90;;;;;;4954476;29;20038;-89
2022/12/11 12:18:42;;;;;;;51.25;29.00;;;0.70;99.90;;;;;;4938082;29;20043;-91
2022/12/11 12:21:35;;;;;;;28.05;18.23;;;0.50;99.90;;;;;;4938144;29;20412;-90
2022/12/11 12:24:31;;;;;;;28.08;16.60;;;0.60;99.90;;;;;;4966683;28;20074;-90
2022/12/11 12:27:20;;;;;;;29.90;17.75;;;0.40;99.90;;;;;;4995567;28;20405;-90
2022/12/11 12:30:10;;;;;;;30.42;17.58;;;0.30;99.90;;;;;;5036880;28;20025;-93
2022/12/11 12:33:13;;;;;;;33.90;18.73;;;0.60;99.90;;;;;;5022415;28;20041;-94
2022/12/11 12:36:04;;;;;;;32.40;17.98;;;0.30;99.90;;;;;;5015475;28;20481;-89
2022/12/11 12:38:35;;;;;;;31.80;18.88;;;0.50;99.90;;;;;;5014113;28;20026;-91
2022/12/11 12:41:18;;;;;;;31.40;18.10;;;0.50;99.90;;;;;;4995002;28;20038;-91
2022/12/11 12:44:15;;;;;;;31.17;18.00;;;0.30;99.90;;;;;;5016511;28;20022;-89
2022/12/11 12:46:50;;;;;;;31.83;18.10;;;0.00;99.90;;;;;;5012830;28;20046;-90
2022/12/11 12:49:27;;;;;;;29.30;16.70;;;-0.10;99.90;;;;;;5013059;28;20060;-90
2022/12/11 12:51:53;;;;;;;31.98;18.30;;;0.10;99.90;;;;;;5012740;28;20026;-90
2022/12/11 12:54:20;;;;;;;30.25;17.35;;;0.20;99.90;;;;;;5014013;28;20461;-90
2022/12/11 12:56:47;;;;;;;30.52;18.02;;;0.20;99.90;;;;;;5013915;28;20032;-90
2022/12/11 12:59:22;;;;;;;34.58;18.23;;;0.10;99.90;;;;;;5014263;28;20038;-90
2022/12/11 13:01:53;;;;;;;31.30;17.73;;;0.20;99.90;;;;;;5019088;28;20056;-89